Time;durP1;ratioP1;P1;durP2;ratioP2;P2;SDS_P1;SDS_P2;PMS_P1;PMS_P2;Temp;Humidity;BMP_temperature;BMP_pressure;BME280_temperature;BME280_humidity;BME280_pressure;Samples;Min_cycle;Max_cycle;Signal;HPM_P1;HPM_P2
2023/07/04 00:00:12;;;;;;;14.00;12.48;;;;;;;24.85;61.37;99349.97;5071394;28;20508;-78
2023/07/04 00:02:37;;;;;;;13.95;12.65;;;;;;;24.61;61.37;99320.88;5071676;28;20782;-77
2023/07/04 00:05:03;;;;;;;13.30;12.00;;;;;;;24.68;61.65;99331.41;5070203;28;20037;-77
2023/07/04 00:07:31;;;;;;;12.95;11.73;;;;;;;24.54;61.50;99323.06;5071546;28;20074;-77
2023/07/04 00:09:59;;;;;;;13.05;11.73;;;;;;;24.55;61.55;99318.47;5070228;28;20032;-77
2023/07/04 00:12:24;;;;;;;14.32;12.95;;;;;;;24.89;61.48;99351.84;5071216;28;20543;-78
2023/07/04 00:14:50;;;;;;;14.65;13.15;;;;;;;24.89;61.47;99353.72;5069744;28;20068;-77
2023/07/04 00:17:15;;;;;;;15.23;13.25;;;;;;;24.12;61.54;99228.97;5071089;28;20033;-78
2023/07/04 00:19:41;;;;;;;14.07;12.57;;;;;;;24.48;61.34;99313.34;5071091;28;20028;-78
2023/07/04 00:22:10;;;;;;;14.02;12.68;;;;;;;24.85;61.32;99363.47;5070922;28;20058;-78
2023/07/04 00:24:40;;;;;;;13.93;12.40;;;;;;;24.69;61.50;99344.63;5071185;28;20103;-77
2023/07/04 00:27:06;;;;;;;14.32;12.27;;;;;;;24.82;61.30;99359.44;5071322;28;20086;-77
2023/07/04 00:29:31;;;;;;;13.60;12.38;;;;;;;24.25;61.61;99273.44;5070925;28;20126;-77
2023/07/04 00:31:58;;;;;;;14.15;12.75;;;;;;;24.17;61.65;99271.31;5072019;28;20107;-77
2023/07/04 00:34:23;;;;;;;14.25;12.77;;;;;;;24.44;61.66;99350.06;5074591;28;20036;-78
2023/07/04 00:36:50;;;;;;;15.55;13.20;;;;;;;24.22;61.82;99309.88;5074194;28;20024;-77
2023/07/04 00:39:16;;;;;;;14.13;12.55;;;;;;;24.37;61.88;99349.53;5074315;28;20035;-78
2023/07/04 00:41:42;;;;;;;13.13;11.80;;;;;;;23.88;62.16;99298.88;5074690;28;20024;-78
2023/07/04 00:44:30;;;;;;;15.40;12.80;;;;;;;24.25;62.37;99359.78;5073368;28;20075;-78
2023/07/04 00:47:10;;;;;;;13.93;12.52;;;;;;;24.06;62.69;99343.34;5074780;28;20481;-78
2023/07/04 00:49:49;;;;;;;14.85;13.40;;;;;;;24.12;62.10;99342.25;5074857;28;20059;-75
2023/07/04 00:52:23;;;;;;;14.02;12.63;;;;;;;23.79;62.45;99297.00;5074404;28;20027;-75
2023/07/04 00:55:00;;;;;;;14.18;12.77;;;;;;;23.37;62.41;99244.09;5074199;28;20029;-77
2023/07/04 00:57:32;;;;;;;13.27;12.02;;;;;;;24.17;62.39;99366.53;5074180;28;20049;-77
2023/07/04 01:00:00;;;;;;;15.85;13.95;;;;;;;24.08;62.64;99368.97;5072886;28;20504;-76
2023/07/04 01:02:31;;;;;;;14.10;12.65;;;;;;;24.03;63.15;99379.75;5074162;28;20027;-76
2023/07/04 01:04:59;;;;;;;17.20;15.40;;;;;;;23.58;62.79;99313.13;5072814;28;20032;-76
2023/07/04 01:07:41;;;;;;;15.98;13.35;;;;;;;23.69;63.05;99330.94;5073857;28;20047;-77
2023/07/04 01:10:16;;;;;;;14.13;12.82;;;;;;;23.93;63.26;99390.53;5072645;28;20099;-78
2023/07/04 01:12:43;;;;;;;15.20;13.60;;;;;;;23.89;63.73;99377.88;5073693;28;20031;-77
2023/07/04 01:15:09;;;;;;;15.15;13.55;;;;;;;23.46;63.50;99310.66;5074100;28;20032;-77
2023/07/04 01:17:35;;;;;;;14.73;13.15;;;;;;;23.77;63.72;99357.34;5073839;28;20111;-78
2023/07/04 01:20:06;;;;;;;15.70;14.18;;;;;;;23.61;63.59;99326.06;5073879;28;20105;-78
2023/07/04 01:22:38;;;;;;;17.25;13.07;;;;;;;23.83;63.90;99373.56;5072393;28;20489;-77
2023/07/04 01:25:22;;;;;;;15.77;12.93;;;;;;;23.76;63.85;99368.41;5073659;28;20029;-77
2023/07/04 01:27:51;;;;;;;14.55;12.50;;;;;;;23.56;63.61;99338.72;5073824;28;20028;-77
2023/07/04 01:30:18;;;;;;;14.50;13.10;;;;;;;23.73;63.75;99388.63;5073634;28;20025;-77
2023/07/04 01:32:44;;;;;;;15.07;13.68;;;;;;;23.72;63.54;99368.13;5073384;28;20115;-78
2023/07/04 01:35:13;;;;;;;14.50;13.00;;;;;;;23.73;63.63;99366.25;5073481;28;20150;-77
2023/07/04 01:37:38;;;;;;;16.60;12.98;;;;;;;23.24;63.83;99283.16;5073332;28;20033;-77
2023/07/04 01:40:07;;;;;;;15.40;13.88;;;;;;;23.06;63.70;99251.34;5073487;28;20024;-77
2023/07/04 01:42:33;;;;;;;15.18;13.68;;;;;;;23.59;63.52;99335.50;5073456;28;20032;-77
2023/07/04 01:45:04;;;;;;;16.80;13.35;;;;;;;23.73;63.62;99355.47;5073485;28;20109;-78
2023/07/04 01:47:32;;;;;;;15.43;13.82;;;;;;;23.71;63.88;99350.34;5073018;28;20028;-78
2023/07/04 01:49:58;;;;;;;14.88;12.98;;;;;;;23.71;63.52;99354.91;5073172;28;20028;-77
2023/07/04 01:52:24;;;;;;;14.52;13.00;;;;;;;23.40;63.20;99300.97;5073342;28;20032;-78
2023/07/04 01:54:50;;;;;;;14.77;13.10;;;;;;;23.78;63.39;99358.16;5073399;28;20021;-77
2023/07/04 01:57:15;;;;;;;14.48;12.98;;;;;;;23.66;63.59;99353.03;5071502;28;20028;-78
2023/07/04 01:59:40;;;;;;;14.32;12.93;;;;;;;23.34;63.05;99317.38;5071806;28;20021;-78
2023/07/04 02:02:06;;;;;;;16.50;13.65;;;;;;;23.58;63.28;99360.84;5072940;28;20099;-77
2023/07/04 02:04:31;;;;;;;15.93;14.25;;;;;;;23.35;63.31;99329.78;5073023;28;20507;-77
2023/07/04 02:06:57;;;;;;;15.75;13.63;;;;;;;23.30;63.48;99335.97;5072965;28;20038;-77
2023/07/04 02:09:24;;;;;;;16.20;13.75;;;;;;;23.30;63.29;99343.25;5073082;28;20024;-77
2023/07/04 02:11:50;;;;;;;16.60;14.90;;;;;;;22.94;63.50;99280.38;5072790;28;20489;-77
2023/07/04 02:14:16;;;;;;;14.80;12.82;;;;;;;23.59;63.25;99386.72;5072813;28;20550;-77
2023/07/04 02:16:42;;;;;;;15.77;13.38;;;;;;;23.25;63.35;99333.25;5071432;28;20023;-76
2023/07/04 02:19:07;;;;;;;15.40;13.18;;;;;;;23.51;63.17;99387.19;5072745;28;20111;-77
2023/07/04 02:21:34;;;;;;;13.88;12.00;;;;;;;23.23;63.53;99367.72;5072454;28;20099;-77
2023/07/04 02:24:00;;;;;;;17.80;13.38;;;;;;;23.14;63.46;99353.97;5070960;28;20409;-77
2023/07/04 02:26:26;;;;;;;14.07;12.60;;;;;;;22.76;63.55;99303.97;5072649;28;20095;-77
2023/07/04 02:28:51;;;;;;;14.25;12.85;;;;;;;23.31;63.70;99393.34;5072518;28;20119;-78
2023/07/04 02:31:17;;;;;;;15.73;12.70;;;;;;;22.55;63.90;99282.63;5072283;28;20024;-78
2023/07/04 02:33:42;;;;;;;14.20;12.43;;;;;;;22.99;63.73;99345.81;5071012;28;20035;-78
2023/07/04 02:36:11;;;;;;;15.13;13.50;;;;;;;23.08;63.89;99367.69;5072251;28;20481;-77
2023/07/04 02:38:38;;;;;;;15.38;13.50;;;;;;;22.97;63.86;99353.34;5072321;28;20497;-77
2023/07/04 02:41:04;;;;;;;16.30;14.25;;;;;;;23.05;64.07;99376.28;5072245;28;20056;-77
2023/07/04 02:43:29;;;;;;;15.05;13.15;;;;;;;22.72;63.90;99319.03;5072627;28;20029;-77
2023/07/04 02:45:55;;;;;;;18.02;13.70;;;;;;;22.93;63.82;99351.44;5070982;28;20025;-77
2023/07/04 02:48:21;;;;;;;14.60;13.20;;;;;;;23.02;63.86;99388.38;5072324;28;20021;-76
2023/07/04 02:51:05;;;;;;;14.77;13.27;;;;;;;23.15;63.90;99397.88;5072414;28;20027;-77
2023/07/04 02:53:30;;;;;;;16.08;13.13;;;;;;;23.03;64.06;99375.72;5071012;28;20032;-77
2023/07/04 02:55:56;;;;;;;14.40;12.68;;;;;;;23.11;63.84;99399.47;5071713;28;20508;-77
2023/07/04 02:58:22;;;;;;;14.60;12.52;;;;;;;23.14;63.92;99394.38;5072127;28;20524;-77
2023/07/04 03:00:48;;;;;;;16.90;14.73;;;;;;;23.06;63.77;99386.00;5072733;28;20415;-78
2023/07/04 03:03:14;;;;;;;15.73;13.35;;;;;;;23.03;63.91;99379.22;5072499;28;20032;-76
2023/07/04 03:05:40;;;;;;;17.95;13.35;;;;;;;22.87;63.78;99364.06;5072608;28;20026;-76
2023/07/04 03:08:06;;;;;;;16.42;14.35;;;;;;;23.09;63.82;99407.81;5073178;28;20408;-77
2023/07/04 03:10:32;;;;;;;21.38;15.02;;;;;;;23.07;64.10;99395.69;5080371;28;20022;-76
2023/07/04 03:12:57;;;;;;;14.73;13.23;;;;;;;22.92;64.09;99368.66;5075583;28;20112;-76
2023/07/04 03:15:23;;;;;;;14.95;12.95;;;;;;;22.74;63.94;99349.19;5071803;28;20040;-76
2023/07/04 03:17:48;;;;;;;15.30;13.73;;;;;;;23.08;63.68;99413.47;5071622;28;20021;-77
2023/07/04 03:20:14;;;;;;;14.85;13.15;;;;;;;22.32;63.90;99283.84;5071777;28;20531;-77
2023/07/04 03:22:40;;;;;;;14.93;13.35;;;;;;;23.07;63.74;99395.69;5071554;28;20089;-78
2023/07/04 03:25:06;;;;;;;15.70;14.07;;;;;;;22.51;64.00;99328.88;5070358;28;20024;-77
2023/07/04 03:27:33;;;;;;;16.48;13.20;;;;;;;23.08;63.68;99403.50;5071508;28;20030;-78
2023/07/04 03:29:58;;;;;;;14.98;13.48;;;;;;;22.45;63.78;99311.09;5071408;28;20516;-77
2023/07/04 03:32:24;;;;;;;15.32;13.73;;;;;;;23.05;63.88;99406.72;5071551;28;20116;-77
2023/07/04 03:34:49;;;;;;;15.82;14.25;;;;;;;22.58;63.91;99325.16;5071447;28;20021;-77
2023/07/04 03:37:14;;;;;;;14.57;13.13;;;;;;;22.42;63.70;99302.75;5070092;28;20017;-78
2023/07/04 03:39:41;;;;;;;21.05;14.85;;;;;;;22.42;63.72;99292.78;5071473;28;20017;-78
2023/07/04 03:42:06;;;;;;;14.93;13.43;;;;;;;22.62;63.54;99308.22;5070169;28;20409;-77
2023/07/04 03:44:32;;;;;;;14.95;13.45;;;;;;;22.74;63.61;99316.06;5071550;28;20016;-77
2023/07/04 03:46:57;;;;;;;19.60;13.43;;;;;;;23.29;63.51;99400.88;5071228;28;20044;-77
2023/07/04 03:49:22;;;;;;;16.58;13.93;;;;;;;22.78;63.52;99309.91;5071144;28;20027;-78
2023/07/04 03:51:48;;;;;;;16.42;14.73;;;;;;;22.90;63.18;99339.31;5071377;28;20028;-77
2023/07/04 03:54:13;;;;;;;15.68;14.02;;;;;;;23.39;63.40;99395.53;5071311;28;20020;-78
2023/07/04 03:56:39;;;;;;;17.75;13.88;;;;;;;23.43;63.23;99404.69;5071382;28;20433;-78
2023/07/04 03:59:04;;;;;;;20.83;14.88;;;;;;;23.45;63.04;99389.88;5069944;28;20120;-77
2023/07/04 04:01:30;;;;;;;16.55;13.50;;;;;;;22.82;63.19;99288.69;5070051;28;20021;-78
2023/07/04 04:03:55;;;;;;;18.33;15.50;;;;;;;23.45;63.13;99405.25;5071397;28;20404;-77
2023/07/04 04:06:21;;;;;;;16.98;14.20;;;;;;;23.40;63.35;99391.75;5071485;28;20017;-78
2023/07/04 04:08:47;;;;;;;16.83;14.68;;;;;;;23.37;63.27;99387.72;5075296;28;20020;-77
2023/07/04 04:11:12;;;;;;;18.88;14.60;;;;;;;22.95;63.46;99325.88;5075344;28;20020;-77
2023/07/04 04:13:37;;;;;;;18.45;14.88;;;;;;;23.44;63.47;99399.03;5074045;28;20016;-78
2023/07/04 04:16:03;;;;;;;20.23;15.80;;;;;;;23.44;63.23;99401.75;5074972;28;20020;-78
2023/07/04 04:18:29;;;;;;;17.02;14.77;;;;;;;23.32;63.32;99395.78;5075057;28;20050;-76
2023/07/04 04:20:54;;;;;;;17.45;14.88;;;;;;;22.93;63.49;99335.28;5075052;28;20028;-78
2023/07/04 04:23:21;;;;;;;16.35;14.63;;;;;;;23.53;63.31;99418.19;5074951;28;20020;-78
2023/07/04 04:25:47;;;;;;;17.40;13.90;;;;;;;23.06;63.42;99342.91;5074744;28;20027;-76
2023/07/04 04:28:13;;;;;;;18.35;13.82;;;;;;;23.55;63.31;99418.78;5075274;28;20024;-77
2023/07/04 04:30:38;;;;;;;17.95;13.68;;;;;;;23.21;63.48;99361.81;5074907;28;20016;-75
2023/07/04 04:33:04;;;;;;;18.98;15.27;;;;;;;23.58;63.55;99425.53;5075009;28;20485;-77
2023/07/04 04:35:31;;;;;;;18.33;15.30;;;;;;;23.60;63.66;99443.03;5073362;28;20485;-78
2023/07/04 04:37:56;;;;;;;17.27;15.10;;;;;;;23.51;63.73;99406.06;5074445;28;20398;-77
2023/07/04 04:40:22;;;;;;;20.35;15.73;;;;;;;23.68;63.45;99437.13;5074470;28;20024;-77
2023/07/04 04:42:55;;;;;;;17.00;14.20;;;;;;;23.67;63.61;99415.84;5073258;28;20059;-78
2023/07/04 04:45:21;;;;;;;17.77;15.95;;;;;;;23.74;63.69;99427.97;5074495;28;20020;-78
2023/07/04 04:47:52;;;;;;;15.88;14.35;;;;;;;23.49;63.56;99383.97;5074463;28;20023;-77
2023/07/04 04:50:23;;;;;;;18.92;14.40;;;;;;;23.82;63.46;99423.97;5074523;28;20024;-78
2023/07/04 04:52:49;;;;;;;17.05;15.35;;;;;;;23.88;63.24;99425.59;5074222;28;20580;-79
2023/07/04 04:55:15;;;;;;;19.73;15.52;;;;;;;23.96;63.33;99426.97;5072871;28;20055;-77
2023/07/04 04:57:41;;;;;;;18.45;15.43;;;;;;;23.82;63.14;99398.91;5074174;28;20037;-78
2023/07/04 05:00:07;;;;;;;17.95;16.13;;;;;;;23.96;63.13;99411.59;5072984;28;20021;-78
2023/07/04 05:02:33;;;;;;;18.42;16.52;;;;;;;24.14;63.46;99431.00;5074226;28;20020;-76
2023/07/04 05:04:59;;;;;;;20.48;17.65;;;;;;;23.90;63.38;99392.97;5074210;28;20107;-77
2023/07/04 05:07:25;;;;;;;19.70;17.60;;;;;;;23.91;62.95;99371.13;5072806;28;20135;-78
2023/07/04 05:09:54;;;;;;;19.45;17.33;;;;;;;23.87;63.29;99367.34;5074216;28;20052;-77
2023/07/04 05:12:21;;;;;;;19.55;17.20;;;;;;;24.08;63.32;99387.03;5072494;28;20033;-76
2023/07/04 05:14:46;;;;;;;20.52;18.20;;;;;;;24.42;63.11;99433.19;5073737;28;20021;-78
2023/07/04 05:17:12;;;;;;;20.67;18.45;;;;;;;24.35;63.29;99414.56;5073274;28;20094;-77
2023/07/04 05:19:37;;;;;;;21.58;18.75;;;;;;;24.06;63.30;99362.22;5073546;28;20054;-78
2023/07/04 05:22:03;;;;;;;20.63;18.55;;;;;;;24.16;62.91;99381.09;5074088;28;20034;-78
2023/07/04 05:24:30;;;;;;;21.65;19.35;;;;;;;24.70;62.86;99446.13;5073649;28;20024;-76
2023/07/04 05:26:55;;;;;;;17.70;15.82;;;;;;;24.58;62.51;99418.63;5072418;28;20137;-78
2023/07/04 05:29:21;;;;;;;20.88;18.58;;;;;;;24.36;62.23;99366.81;5073766;28;20058;-78
2023/07/04 05:31:46;;;;;;;19.83;17.45;;;;;;;24.25;61.84;99339.00;5073604;28;20100;-77
2023/07/04 05:34:11;;;;;;;19.08;15.60;;;;;;;25.00;61.30;99444.47;5073561;28;20460;-75
2023/07/04 05:36:37;;;;;;;16.83;15.13;;;;;;;24.98;60.87;99436.63;5074875;28;20028;-77
2023/07/04 05:39:06;;;;;;;16.17;14.43;;;;;;;25.10;60.20;99449.03;5072790;28;20032;-77
2023/07/04 05:41:33;;;;;;;15.68;14.00;;;;;;;25.16;59.96;99450.63;5071309;28;20017;-76
2023/07/04 05:44:02;;;;;;;15.63;13.75;;;;;;;25.21;59.57;99453.31;5072466;28;20082;-76
2023/07/04 05:46:28;;;;;;;15.80;14.25;;;;;;;25.23;59.62;99445.75;5073152;28;20031;-76
2023/07/04 05:48:54;;;;;;;15.70;14.10;;;;;;;25.20;59.59;99441.69;5071767;28;20020;-78
2023/07/04 05:51:20;;;;;;;14.68;13.10;;;;;;;24.70;58.96;99361.63;5072041;28;20078;-77
2023/07/04 05:53:48;;;;;;;14.90;13.35;;;;;;;24.98;58.88;99392.63;5073495;28;20497;-76
2023/07/04 05:56:13;;;;;;;15.00;13.60;;;;;;;25.42;58.74;99445.94;5072731;28;20017;-75
2023/07/04 05:58:41;;;;;;;15.98;14.38;;;;;;;25.10;58.60;99393.09;5078335;28;20543;-76
2023/07/04 06:01:21;;;;;;;15.43;13.75;;;;;;;25.51;58.65;99445.09;5069453;28;20036;-77
2023/07/04 06:03:47;;;;;;;13.80;12.45;;;;;;;25.58;58.48;99448.31;5067768;28;20021;-77
2023/07/04 06:06:34;;;;;;;18.40;15.60;;;;;;;25.63;58.98;99445.56;5079284;28;20024;-77
2023/07/04 06:09:01;;;;;;;17.33;15.55;;;;;;;25.61;58.40;99433.41;5084648;28;20052;-77
2023/07/04 06:11:30;;;;;;;18.40;14.82;;;;;;;25.72;58.52;99434.19;5072836;28;20054;-77
2023/07/04 06:13:56;;;;;;;16.70;15.10;;;;;;;25.22;58.42;99376.56;5072744;28;20031;-78
2023/07/04 06:16:21;;;;;;;17.50;15.82;;;;;;;25.55;58.36;99408.31;5077062;28;20020;-77
2023/07/04 06:18:47;;;;;;;16.98;15.27;;;;;;;25.35;57.98;99362.47;5071968;28;20029;-77
2023/07/04 06:21:18;;;;;;;17.80;16.00;;;;;;;25.55;57.62;99389.38;5074106;28;20442;-77
2023/07/04 06:23:44;;;;;;;15.77;14.27;;;;;;;25.96;57.59;99444.03;5070959;28;20505;-78
2023/07/04 06:26:11;;;;;;;17.15;15.50;;;;;;;26.02;57.44;99431.31;5071897;28;20031;-77
2023/07/04 06:28:38;;;;;;;15.85;14.20;;;;;;;26.06;56.88;99434.25;5071411;28;20027;-77
2023/07/04 06:31:11;;;;;;;14.45;13.05;;;;;;;26.08;56.63;99434.78;5074751;28;20025;-78
2023/07/04 06:33:36;;;;;;;15.98;14.30;;;;;;;26.14;56.33;99436.34;5072536;28;20052;-78
2023/07/04 06:36:03;;;;;;;15.27;13.70;;;;;;;26.18;55.97;99437.41;5081968;28;20508;-78
2023/07/04 06:38:28;;;;;;;15.63;13.57;;;;;;;26.13;55.89;99422.03;5089175;28;20035;-78
2023/07/04 06:41:00;;;;;;;14.45;12.95;;;;;;;26.28;55.77;99435.41;5070690;28;20029;-76
2023/07/04 06:43:26;;;;;;;13.93;12.55;;;;;;;26.31;55.16;99436.75;5075504;28;20413;-78
2023/07/04 06:45:52;;;;;;;15.23;13.35;;;;;;;26.41;54.92;99438.59;5085333;28;20032;-77
2023/07/04 06:48:17;;;;;;;14.02;12.73;;;;;;;26.01;54.72;99366.63;5072243;28;20021;-75
2023/07/04 06:50:45;;;;;;;14.73;13.35;;;;;;;26.23;54.51;99394.06;5076188;28;20032;-78
2023/07/04 06:53:11;;;;;;;15.07;13.57;;;;;;;26.42;54.64;99411.22;5073388;28;20020;-76
2023/07/04 06:55:36;;;;;;;16.92;15.23;;;;;;;26.63;54.51;99436.22;5072957;28;20516;-77
2023/07/04 06:58:04;;;;;;;15.43;14.02;;;;;;;26.59;54.61;99418.91;5071643;28;20037;-77
2023/07/04 07:00:30;;;;;;;15.90;14.48;;;;;;;26.77;54.15;99425.53;5072605;28;20024;-78
2023/07/04 07:02:55;;;;;;;14.52;13.02;;;;;;;26.55;54.17;99391.59;5078763;28;20424;-77
2023/07/04 07:05:20;;;;;;;13.00;11.70;;;;;;;26.82;53.47;99417.34;5072079;28;20033;-76
2023/07/04 07:07:46;;;;;;;14.98;13.20;;;;;;;26.95;53.22;99426.69;5070979;28;20016;-76
2023/07/04 07:10:12;;;;;;;13.65;12.23;;;;;;;26.92;52.91;99422.66;5070193;28;20466;-78
2023/07/04 07:12:37;;;;;;;12.43;11.23;;;;;;;26.89;52.54;99401.56;5073411;28;20051;-77
2023/07/04 07:15:03;;;;;;;14.13;12.63;;;;;;;26.88;52.40;99411.59;5082882;28;20455;-77
2023/07/04 07:17:28;;;;;;;10.70;9.70;;;;;;;26.91;51.13;99408.31;5072622;28;20020;-77
2023/07/04 07:19:54;;;;;;;11.02;9.85;;;;;;;27.21;50.16;99434.25;5073114;28;20481;-77
2023/07/04 07:22:19;;;;;;;10.70;9.60;;;;;;;27.25;50.30;99433.69;5069957;28;20404;-77
2023/07/04 07:24:45;;;;;;;9.88;8.35;;;;;;;26.99;50.02;99378.97;5075986;28;20029;-75
2023/07/04 07:27:10;;;;;;;17.40;15.60;;;;;;;26.67;50.06;99325.41;5070646;28;20107;-77
2023/07/04 07:29:36;;;;;;;14.02;12.73;;;;;;;27.38;49.91;99422.94;5070613;28;20412;-78
2023/07/04 07:32:08;;;;;;;15.68;14.10;;;;;;;27.11;50.32;99363.91;5069656;28;20024;-78
2023/07/04 07:34:33;;;;;;;13.52;11.48;;;;;;;27.54;49.79;99412.72;5081766;28;20032;-76
2023/07/04 07:36:58;;;;;;;14.80;11.98;;;;;;;27.65;50.01;99425.06;5067788;28;20025;-75
2023/07/04 07:42:08;;;;;;;25.85;23.35;;;;;;;27.59;50.09;99396.38;5080506;28;20107;-78
2023/07/04 07:44:33;;;;;;;19.92;15.77;;;;;;;27.85;49.80;99416.63;5089976;28;20106;-75
2023/07/04 07:46:59;;;;;;;13.95;12.50;;;;;;;27.91;49.69;99421.97;5075995;28;20486;-77
2023/07/04 07:49:24;;;;;;;11.90;10.70;;;;;;;27.97;49.02;99416.16;5069530;28;20067;-77
2023/07/04 07:51:50;;;;;;;13.10;10.00;;;;;;;27.79;48.64;99385.22;5070772;28;20032;-77
2023/07/04 07:54:15;;;;;;;14.20;12.70;;;;;;;28.16;48.67;99426.97;5069961;28;20024;-75
2023/07/04 07:56:44;;;;;;;12.27;11.02;;;;;;;28.22;48.66;99412.22;5072719;28;20052;-76
2023/07/04 07:59:10;;;;;;;13.48;12.18;;;;;;;28.03;47.89;99370.75;5071239;28;20506;-76
2023/07/04 08:01:36;;;;;;;12.35;10.20;;;;;;;28.39;47.64;99419.88;5070060;28;20076;-76
2023/07/04 08:04:03;;;;;;;12.80;11.35;;;;;;;27.94;47.44;99335.34;5073023;28;20028;-76
2023/07/04 08:06:38;;;;;;;17.63;15.40;;;;;;;28.29;47.25;99376.59;5069570;28;20029;-76
2023/07/04 08:09:05;;;;;;;13.90;12.48;;;;;;;28.54;48.00;99408.72;5069137;28;20043;-75
2023/07/04 08:11:32;;;;;;;14.95;13.15;;;;;;;28.67;47.73;99418.00;5077701;28;20024;-77
2023/07/04 08:13:59;;;;;;;14.70;12.88;;;;;;;28.75;47.38;99428.16;5072917;28;20016;-77
2023/07/04 08:16:27;;;;;;;14.18;12.65;;;;;;;28.39;47.32;99358.22;5070833;28;20025;-75
2023/07/04 08:18:53;;;;;;;14.15;9.75;;;;;;;28.55;46.69;99371.50;5070025;28;20029;-76
2023/07/04 08:21:18;;;;;;;13.15;11.75;;;;;;;28.47;46.75;99354.00;5073297;28;20111;-77
2023/07/04 08:23:45;;;;;;;11.00;9.93;;;;;;;28.96;46.09;99417.75;5071231;28;20636;-78
2023/07/04 08:26:19;;;;;;;14.20;11.60;;;;;;;28.56;45.81;99351.38;5071132;28;20479;-75
2023/07/04 08:28:44;;;;;;;13.75;12.55;;;;;;;29.09;45.70;99428.63;5070667;28;20500;-77
2023/07/04 08:31:10;;;;;;;12.40;11.20;;;;;;;29.16;45.49;99422.78;5070728;28;20048;-76
2023/07/04 08:33:36;;;;;;;11.93;10.82;;;;;;;28.85;45.09;99359.25;5071096;28;20048;-76
2023/07/04 08:36:05;;;;;;;10.98;9.88;;;;;;;29.31;44.42;99414.31;5072956;28;20060;-75
2023/07/04 08:38:31;;;;;;;16.33;14.63;;;;;;;29.39;44.91;99423.66;5066324;28;20048;-78
2023/07/04 08:40:56;;;;;;;18.15;16.35;;;;;;;29.27;44.82;99394.28;5070123;28;20111;-77
2023/07/04 08:43:34;;;;;;;14.52;11.65;;;;;;;29.31;44.35;99381.69;5079866;28;20056;-78
2023/07/04 08:46:03;;;;;;;17.40;15.65;;;;;;;29.69;44.39;99423.03;5081437;28;20056;-75
2023/07/04 08:48:29;;;;;;;10.60;9.50;;;;;;;29.58;43.87;99399.88;5069728;28;20028;-76
2023/07/04 08:50:58;;;;;;;11.73;10.05;;;;;;;29.82;43.32;99435.00;5072283;28;20376;-77
2023/07/04 08:53:25;;;;;;;13.55;12.15;;;;;;;29.46;43.34;99350.63;5072558;28;20481;-75
2023/07/04 08:55:55;;;;;;;12.25;10.75;;;;;;;29.70;43.32;99381.09;5074053;28;20157;-77
2023/07/04 08:58:26;;;;;;;12.98;11.70;;;;;;;29.77;43.15;99379.88;5075301;28;20170;-77
2023/07/04 09:00:56;;;;;;;15.07;13.32;;;;;;;29.86;42.98;99367.13;5070015;28;20136;-77
2023/07/04 09:03:36;;;;;;;13.07;11.70;;;;;;;30.08;42.77;99377.25;5071512;28;20032;-76
2023/07/04 09:06:10;;;;;;;10.65;9.75;;;;;;;30.46;42.66;99418.47;5072023;28;20032;-77
2023/07/04 09:09:07;;;;;;;10.05;9.05;;;;;;;30.57;42.01;99414.41;5072403;28;20024;-78
2023/07/04 09:11:51;;;;;;;11.60;10.50;;;;;;;30.46;42.45;99377.59;5078582;28;20500;-76
2023/07/04 09:14:27;;;;;;;10.35;9.35;;;;;;;30.78;42.19;99393.69;5077185;28;20028;-77
2023/07/04 09:16:56;;;;;;;13.65;11.70;;;;;;;30.95;41.69;99399.19;5075115;28;20115;-77
2023/07/04 09:19:22;;;;;;;10.70;9.70;;;;;;;31.16;40.92;99409.53;5069417;28;20086;-76
2023/07/04 09:21:48;;;;;;;9.43;8.52;;;;;;;31.28;40.39;99417.94;5070419;28;20489;-76
2023/07/04 09:24:14;;;;;;;10.07;8.75;;;;;;;31.07;39.62;99362.31;5071333;28;20032;-77
2023/07/04 09:26:41;;;;;;;10.73;9.63;;;;;;;31.52;39.04;99407.38;5077625;28;20028;-77
2023/07/04 09:29:07;;;;;;;10.63;9.65;;;;;;;31.40;39.11;99370.94;5071434;28;20032;-75
2023/07/04 09:31:36;;;;;;;10.60;9.70;;;;;;;31.88;38.96;99404.34;5073789;28;20038;-77
2023/07/04 09:34:09;;;;;;;13.23;12.00;;;;;;;32.16;38.47;99407.56;5079399;28;20502;-76
2023/07/04 09:36:38;;;;;;;10.00;9.05;;;;;;;32.35;38.08;99404.50;5072903;28;20064;-76
2023/07/04 09:39:04;;;;;;;8.80;7.55;;;;;;;32.49;37.51;99410.56;5072232;28;20054;-76
2023/07/04 09:41:32;;;;;;;10.18;9.27;;;;;;;32.02;37.37;99308.63;5073135;28;20028;-77
2023/07/04 09:44:28;;;;;;;10.15;8.40;;;;;;;32.53;36.76;99343.16;5079477;28;20086;-75
2023/07/04 09:46:56;;;;;;;7.85;7.05;;;;;;;33.03;35.65;99404.59;5072844;28;20493;-77
2023/07/04 09:49:22;;;;;;;12.10;10.70;;;;;;;33.12;36.02;99403.41;5072599;28;20028;-77
2023/07/04 09:52:13;;;;;;;11.43;8.88;;;;;;;32.85;35.56;99349.97;5065679;28;20485;-78
2023/07/04 09:54:41;;;;;;;9.80;8.80;;;;;;;33.39;35.15;99398.59;5073973;28;20043;-75
2023/07/04 09:57:15;;;;;;;13.20;11.80;;;;;;;33.56;35.20;99405.91;5071882;28;20035;-78
2023/07/04 09:59:42;;;;;;;10.43;9.05;;;;;;;33.71;34.81;99402.56;5067955;28;20051;-78
2023/07/04 10:02:18;;;;;;;9.10;8.15;;;;;;;33.55;34.42;99350.34;5067466;28;20036;-76
2023/07/04 10:04:46;;;;;;;8.07;7.32;;;;;;;33.73;34.17;99378.38;5073074;28;20040;-77
2023/07/04 10:07:14;;;;;;;10.07;8.60;;;;;;;34.20;33.70;99400.06;5072323;28;20108;-77
2023/07/04 10:10:07;;;;;;;8.93;8.07;;;;;;;34.27;33.07;99368.22;5073971;28;20047;-76
2023/07/04 10:12:41;;;;;;;10.00;9.10;;;;;;;34.18;32.69;99329.13;5061672;28;20048;-77
2023/07/04 10:15:07;;;;;;;8.07;7.20;;;;;;;34.38;32.85;99377.63;5082901;28;20035;-77
2023/07/04 10:17:35;;;;;;;9.10;8.30;;;;;;;34.51;33.39;99400.38;5071734;28;20107;-77
2023/07/04 10:20:12;;;;;;;10.02;8.27;;;;;;;34.62;32.38;99400.72;5068776;28;20036;-77
2023/07/04 10:22:41;;;;;;;8.32;7.63;;;;;;;34.64;32.59;99396.50;5068110;28;20115;-77
2023/07/04 10:25:23;;;;;;;10.10;9.13;;;;;;;34.84;32.63;99396.78;5069017;28;20029;-77
2023/07/04 10:27:55;;;;;;;8.43;7.60;;;;;;;34.30;32.31;99282.56;5070944;28;20148;-77
2023/07/04 10:30:24;;;;;;;9.30;8.40;;;;;;;34.73;31.95;99314.13;5072209;28;20031;-77
2023/07/04 10:32:56;;;;;;;10.55;8.88;;;;;;;35.24;31.70;99389.44;5070712;28;20023;-78
2023/07/04 10:35:26;;;;;;;9.90;8.82;;;;;;;35.27;31.55;99387.97;5077975;28;20089;-78
2023/07/04 10:37:58;;;;;;;8.65;7.88;;;;;;;35.26;31.53;99362.44;5068439;28;20020;-75
2023/07/04 10:40:26;;;;;;;7.38;6.80;;;;;;;35.10;31.18;99287.47;5072217;28;20081;-77
2023/07/04 10:43:30;;;;;;;9.68;8.77;;;;;;;35.65;30.00;99346.34;5072589;28;20413;-77
2023/07/04 10:45:58;;;;;;;9.10;8.20;;;;;;;35.62;30.53;99367.06;5033360;28;20133;-78
2023/07/04 10:48:26;;;;;;;9.82;8.82;;;;;;;35.77;30.60;99371.03;5071766;28;20024;-77
2023/07/04 10:50:56;;;;;;;9.07;8.20;;;;;;;35.87;30.23;99369.75;5072493;28;20028;-76
2023/07/04 10:53:22;;;;;;;7.70;7.00;;;;;;;35.71;30.16;99302.97;5076177;28;20031;-76
2023/07/04 10:55:56;;;;;;;8.25;7.45;;;;;;;36.23;29.71;99366.81;5069414;28;20119;-77
2023/07/04 10:58:25;;;;;;;9.27;8.07;;;;;;;35.91;30.47;99346.72;5075021;28;20079;-78
2023/07/04 11:01:13;;;;;;;8.10;7.40;;;;;;;35.57;30.75;99374.75;5077621;28;20028;-76
2023/07/04 11:03:48;;;;;;;9.35;8.48;;;;;;;35.67;30.74;99366.00;5075837;28;20508;-78
2023/07/04 11:06:19;;;;;;;9.45;8.35;;;;;;;35.63;30.29;99318.41;5060881;28;20101;-77
2023/07/04 11:08:45;;;;;;;8.50;7.65;;;;;;;36.17;30.18;99354.47;5070098;28;20501;-75
2023/07/04 11:11:15;;;;;;;10.05;8.00;;;;;;;36.12;29.47;99309.97;5073253;28;20025;-78
2023/07/04 11:13:54;;;;;;;7.97;7.10;;;;;;;36.13;28.95;99275.81;5067723;28;20033;-78
2023/07/04 11:16:24;;;;;;;8.88;8.02;;;;;;;36.53;29.09;99314.97;5071697;28;20039;-75
2023/07/04 11:19:04;;;;;;;7.85;7.15;;;;;;;36.20;29.18;99314.50;5069925;28;20099;-76
2023/07/04 11:21:30;;;;;;;8.73;7.67;;;;;;;35.48;30.22;99278.00;5076105;28;20535;-76
2023/07/04 11:24:10;;;;;;;8.40;7.60;;;;;;;35.00;31.28;99276.97;5071413;28;20021;-75
2023/07/04 11:26:53;;;;;;;10.38;9.38;;;;;;;34.41;31.58;99250.03;5070004;28;20062;-77